createdAt,value
2023-02-19T16:00:57.914Z,100354.28
2023-02-19T16:01:40.878Z,100354.50
2023-02-19T16:02:19.660Z,100346.63
2023-02-19T16:02:52.721Z,100355.47
2023-02-19T16:03:27.647Z,100358.16
2023-02-19T16:04:01.032Z,100364.50
2023-02-19T16:04:36.239Z,100354.69
2023-02-19T16:05:27.935Z,100361.16
2023-02-19T16:06:10.662Z,100366.34
2023-02-19T16:07:01.129Z,100367.47
2023-02-19T16:07:33.840Z,100363.63
2023-02-19T16:08:20.867Z,100365.91
2023-02-19T16:08:53.137Z,100375.56
2023-02-19T16:09:38.101Z,100373.41
2023-02-19T16:10:25.810Z,100376.06
2023-02-19T16:11:01.577Z,100380.25
2023-02-19T16:11:40.145Z,100375.09
2023-02-19T16:12:28.332Z,100370.22
2023-02-19T16:13:03.162Z,100382.91
2023-02-19T16:13:35.626Z,100374.69
2023-02-19T16:14:24.052Z,100381.53
2023-02-19T16:14:56.420Z,100380.25
2023-02-19T16:15:31.761Z,100365.59
2023-02-19T16:16:10.187Z,100387.38
2023-02-19T16:16:46.522Z,100378.31
2023-02-19T16:17:28.297Z,100377.75
2023-02-19T16:18:05.481Z,100372.16
2023-02-19T16:18:41.345Z,100365.72
2023-02-19T16:19:14.446Z,100382.75
2023-02-19T16:19:54.068Z,100381.38
2023-02-19T16:20:43.296Z,100381.91
2023-02-19T16:21:21.102Z,100382.19
2023-02-19T16:22:00.547Z,100382.31
2023-02-19T16:22:42.206Z,100379.53
2023-02-19T16:23:21.358Z,100389.16
2023-02-19T16:24:04.428Z,100385.91
2023-02-19T16:24:46.974Z,100375.44
2023-02-19T16:25:30.433Z,100392.72
2023-02-19T16:26:03.966Z,100391.31
2023-02-19T16:26:49.894Z,100389.94
2023-02-19T16:27:35.344Z,100385.28
2023-02-19T16:28:12.200Z,100398.38
2023-02-19T16:28:45.286Z,100401.31
2023-02-19T16:29:21.602Z,100407.16
2023-02-19T16:29:54.357Z,100406.44
2023-02-19T16:30:34.668Z,100398.75
2023-02-19T16:31:14.321Z,100399.03
2023-02-19T16:31:58.793Z,100406.25
2023-02-19T16:32:31.666Z,100404.84
2023-02-19T16:33:41.959Z,100402.47
2023-02-19T16:34:32.377Z,100400.59
2023-02-19T16:35:05.425Z,100396.97
2023-02-19T16:35:42.366Z,100404.22
2023-02-19T16:36:37.492Z,100393.34
2023-02-19T16:37:44.676Z,100399.97
2023-02-19T16:38:21.168Z,100396.28
2023-02-19T16:39:03.706Z,100397.97
2023-02-19T16:39:36.493Z,100402.41
2023-02-19T16:40:09.319Z,100402.53
2023-02-19T16:40:54.794Z,100399.31
2023-02-19T16:41:27.703Z,100410.47
2023-02-19T16:42:00.261Z,100403.91
2023-02-19T16:42:32.884Z,100407.25
2023-02-19T16:43:27.264Z,100407.44
2023-02-19T16:44:02.715Z,100405.31
2023-02-19T16:44:40.183Z,100412.03
2023-02-19T16:45:13.742Z,100409.09
2023-02-19T16:45:48.011Z,100407.31
2023-02-19T16:46:23.066Z,100403.78
2023-02-19T16:46:59.010Z,100408.22
2023-02-19T16:47:41.825Z,100407.06
2023-02-19T16:48:15.213Z,100413.19
2023-02-19T16:48:48.322Z,100420.53
2023-02-19T16:49:23.718Z,100420.66
2023-02-19T16:49:59.144Z,100418.16
2023-02-19T16:50:31.910Z,100413.97
2023-02-19T16:51:07.301Z,100412.94
2023-02-19T16:51:40.634Z,100419.66
2023-02-19T16:52:16.520Z,100411.50
2023-02-19T16:52:56.226Z,100422.56
2023-02-19T16:53:32.883Z,100420.88
2023-02-19T16:54:09.515Z,100423.88
2023-02-19T16:54:41.869Z,100422.47
2023-02-19T16:56:01.211Z,100423.34
2023-02-19T16:56:34.106Z,100421.09
2023-02-19T16:57:06.241Z,100433.19
2023-02-19T16:57:38.200Z,100437.50
2023-02-19T16:58:20.977Z,100438.47
2023-02-19T16:58:53.263Z,100434.41
2023-02-19T16:59:25.957Z,100435.50
2023-02-19T16:59:58.276Z,100434.81
2023-02-19T17:00:32.531Z,100437.31
2023-02-19T17:01:06.785Z,100435.91
2023-02-19T17:01:39.920Z,100434.47
2023-02-19T17:02:19.996Z,100445.03
2023-02-19T17:03:00.697Z,100444.44
2023-02-19T17:03:33.801Z,100448.03
2023-02-19T17:04:14.187Z,100438.69
2023-02-19T17:04:48.647Z,100442.88
2023-02-19T17:05:28.376Z,100434.50
2023-02-19T17:06:01.255Z,100432.56
2023-02-19T17:06:35.366Z,100447.72
2023-02-19T17:07:09.780Z,100447.00
2023-02-19T17:07:42.599Z,100443.66
2023-02-19T17:08:34.186Z,100448.22
2023-02-19T17:09:09.024Z,100450.00
2023-02-19T17:09:41.740Z,100453.72
2023-02-19T17:10:18.636Z,100451.81
2023-02-19T17:10:50.620Z,100448.56
2023-02-19T17:11:35.141Z,100446.16
2023-02-19T17:12:13.042Z,100448.22
2023-02-19T17:12:45.766Z,100450.75
2023-02-19T17:13:24.385Z,100451.59
2023-02-19T17:13:57.210Z,100451.59
2023-02-19T17:14:30.786Z,100448.34
2023-02-19T17:15:03.494Z,100456.16
2023-02-19T17:15:36.181Z,100445.25
2023-02-19T17:16:14.178Z,100461.56
2023-02-19T17:16:47.559Z,100462.53
2023-02-19T17:17:23.347Z,100462.06
2023-02-19T17:17:56.082Z,100465.53
2023-02-19T17:18:30.209Z,100466.25
2023-02-19T17:19:08.889Z,100469.25
2023-02-19T17:19:42.539Z,100448.38
2023-02-19T17:20:24.118Z,100464.44
2023-02-19T17:21:13.309Z,100463.47
2023-02-19T17:21:47.667Z,100469.13
2023-02-19T17:22:19.956Z,100468.88
2023-02-19T17:22:52.784Z,100471.78
2023-02-19T17:23:25.300Z,100465.53
2023-02-19T17:24:01.527Z,100463.13
2023-02-19T17:24:39.332Z,100464.94
2023-02-19T17:25:12.172Z,100469.50
2023-02-19T17:25:45.082Z,100471.31
2023-02-19T17:26:21.149Z,100470.72
2023-02-19T17:26:53.960Z,100464.59
2023-02-19T17:27:27.724Z,100470.59
2023-02-19T17:28:00.505Z,100470.81
2023-02-19T17:28:33.371Z,100468.28
2023-02-19T17:29:09.085Z,100465.66
2023-02-19T17:29:42.151Z,100472.97
2023-02-19T17:30:30.879Z,100475.50
2023-02-19T17:31:06.991Z,100471.06
2023-02-19T17:31:39.374Z,100467.13
2023-02-19T17:32:11.625Z,100473.09
2023-02-19T17:32:53.837Z,100476.22
2023-02-19T17:33:25.937Z,100470.34
2023-02-19T17:33:59.591Z,100474.03
2023-02-19T17:34:32.752Z,100472.97
2023-02-19T17:35:08.317Z,100473.81
2023-02-19T17:35:42.527Z,100472.28
2023-02-19T17:36:24.398Z,100479.22
2023-02-19T17:36:59.623Z,100478.38
2023-02-19T17:37:35.175Z,100479.34
2023-02-19T17:38:10.103Z,100475.88
2023-02-19T17:38:43.081Z,100483.78
2023-02-19T17:39:21.297Z,100485.59
2023-02-19T17:39:53.692Z,100493.38
2023-02-19T17:40:33.716Z,100490.88
2023-02-19T17:41:06.492Z,100490.88
2023-02-19T17:41:39.229Z,100492.53
2023-02-19T17:42:11.950Z,100488.34
2023-02-19T17:42:44.857Z,100487.28
2023-02-19T17:43:17.552Z,100493.50
2023-02-19T17:43:54.180Z,100487.47
2023-02-19T17:44:26.358Z,100484.25
2023-02-19T17:45:00.244Z,100484.25
2023-02-19T17:45:33.566Z,100491.19
2023-02-19T17:46:06.512Z,100487.72
2023-02-19T17:46:41.173Z,100485.22
2023-02-19T17:47:13.993Z,100493.84
2023-02-19T17:47:48.208Z,100500.78
2023-02-19T17:48:21.812Z,100494.94
2023-02-19T17:48:55.878Z,100499.59
2023-02-19T17:49:28.562Z,100495.28
2023-02-19T17:50:05.415Z,100495.91
2023-02-19T17:50:37.960Z,100500.94
2023-02-19T17:51:11.176Z,100509.94
2023-02-19T17:51:45.213Z,100501.19
2023-02-19T17:52:19.991Z,100508.34
2023-02-19T17:52:52.825Z,100496.94
2023-02-19T17:53:25.430Z,100511.06
2023-02-19T17:53:58.153Z,100514.38
2023-02-19T17:54:31.097Z,100501.91
2023-02-19T17:55:05.604Z,100504.53
2023-02-19T17:55:38.680Z,100508.00
2023-02-19T17:56:18.624Z,100500.94
2023-02-19T17:56:51.322Z,100504.16
2023-02-19T17:57:24.143Z,100507.88
2023-02-19T17:57:58.166Z,100507.66
2023-02-19T17:58:31.182Z,100503.94
2023-02-19T17:59:03.870Z,100504.16
2023-02-19T17:59:36.991Z,100506.09
2023-02-19T18:00:14.664Z,100507.06
2023-02-19T18:00:47.675Z,100510.53
2023-02-19T18:01:20.520Z,100508.72
2023-02-19T18:01:53.304Z,100508.47
2023-02-19T18:02:26.037Z,100508.72
2023-02-19T18:02:59.220Z,100506.34
2023-02-19T18:03:31.760Z,100513.75
2023-02-19T18:04:05.002Z,100512.09
2023-02-19T18:04:39.588Z,100514.13
2023-02-19T18:05:17.258Z,100513.84
2023-02-19T18:05:50.482Z,100515.75
2023-02-19T18:06:23.149Z,100523.78
2023-02-19T18:06:56.479Z,100527.63
2023-02-19T18:07:28.794Z,100532.06
2023-02-19T18:08:00.935Z,100532.91
2023-02-19T18:08:33.856Z,100528.94
2023-02-19T18:09:06.654Z,100528.81
2023-02-19T18:09:41.544Z,100529.03
2023-02-19T18:10:15.679Z,100534.41
2023-02-19T18:10:48.634Z,100525.44
2023-02-19T18:11:23.740Z,100525.19
2023-02-19T18:11:56.471Z,100528.41
2023-02-19T18:12:30.429Z,100530.59
2023-02-19T18:13:03.241Z,100534.19
2023-02-19T18:13:36.858Z,100533.22
2023-02-19T18:14:09.482Z,100536.81
2023-02-19T18:14:42.057Z,100533.56
2023-02-19T18:15:26.778Z,100549.50
2023-02-19T18:16:00.070Z,100541.50
2023-02-19T18:16:34.194Z,100533.06
2023-02-19T18:17:07.741Z,100540.66
2023-02-19T18:17:41.586Z,100536.44
2023-02-19T18:18:15.760Z,100553.22
2023-02-19T18:18:49.709Z,100554.16
2023-02-19T18:19:23.500Z,100549.75
2023-02-19T18:19:56.589Z,100545.03
2023-02-19T18:20:29.973Z,100557.88
2023-02-19T18:21:06.979Z,100561.56
2023-02-19T18:21:40.165Z,100563.50
2023-02-19T18:22:12.764Z,100566.00
2023-02-19T18:22:45.405Z,100561.47
2023-02-19T18:23:17.865Z,100548.88
2023-02-19T18:23:50.151Z,100560.63
2023-02-19T18:24:23.481Z,100557.25
2023-02-19T18:24:57.662Z,100547.19
2023-02-19T18:25:33.413Z,100556.53
2023-02-19T18:26:11.035Z,100556.78
2023-02-19T18:26:43.761Z,100555.31
2023-02-19T18:27:19.352Z,100555.31
2023-02-19T18:27:52.729Z,100554.25
2023-02-19T18:28:26.173Z,100564.06
2023-02-19T18:29:01.671Z,100557.97
2023-02-19T18:29:35.146Z,100572.28
2023-02-19T18:30:08.942Z,100576.66
2023-02-19T18:30:41.705Z,100568.22
2023-02-19T18:31:14.909Z,100569.91
2023-02-19T18:31:48.760Z,100572.41
2023-02-19T18:32:23.617Z,100568.09
2023-02-19T18:32:56.156Z,100574.44
2023-02-19T18:33:28.939Z,100577.91
2023-02-19T18:34:02.085Z,100579.72
2023-02-19T18:34:35.873Z,100583.31
2023-02-19T18:35:09.481Z,100572.16
2023-02-19T18:35:42.794Z,100573.72
2023-02-19T18:36:17.746Z,100584.16
2023-02-19T18:36:51.351Z,100581.28
2023-02-19T18:37:26.938Z,100586.97
2023-02-19T18:38:01.927Z,100576.31
2023-02-19T18:38:34.791Z,100578.22
2023-02-19T18:39:06.950Z,100579.78
2023-02-19T18:39:39.730Z,100570.19
2023-02-19T18:40:13.056Z,100575.47
2023-02-19T18:40:45.768Z,100580.69
2023-02-19T18:41:21.394Z,100585.34
2023-02-19T18:41:54.152Z,100584.88
2023-02-19T18:42:27.476Z,100583.50
2023-02-19T18:43:00.554Z,100579.78
2023-02-19T18:43:33.661Z,100588.25
2023-02-19T18:44:06.027Z,100591.06
2023-02-19T18:44:39.424Z,100595.97
2023-02-19T18:45:21.221Z,100588.78
2023-02-19T18:45:54.930Z,100589.50
2023-02-19T18:46:28.531Z,100601.72
2023-02-19T18:47:01.678Z,100596.03
2023-02-19T18:47:34.518Z,100601.81
2023-02-19T18:48:07.322Z,100602.88
2023-02-19T18:48:40.462Z,100611.88
2023-02-19T18:49:15.128Z,100612.59
2023-02-19T18:49:49.771Z,100615.69
2023-02-19T18:50:22.608Z,100610.50
2023-02-19T18:50:54.591Z,100614.19
2023-02-19T18:51:27.150Z,100611.81
2023-02-19T18:52:02.036Z,100616.34
2023-02-19T18:52:34.978Z,100613.59
2023-02-19T18:53:08.510Z,100613.00
2023-02-19T18:53:43.739Z,100614.69
2023-02-19T18:54:16.477Z,100625.09
2023-02-19T18:54:51.205Z,100620.41
2023-02-19T18:55:24.033Z,100610.66
2023-02-19T18:55:58.071Z,100627.69
2023-02-19T18:56:31.670Z,100620.13
2023-02-19T18:57:05.244Z,100623.72
2023-02-19T18:57:38.250Z,100615.75
2023-02-19T18:58:14.060Z,100624.44
2023-02-19T18:58:48.222Z,100616.59
2023-02-19T18:59:22.241Z,100624.63
2023-02-19T18:59:54.841Z,100621.88
2023-02-19T19:00:28.792Z,100628.16
2023-02-19T19:01:01.534Z,100626.31
2023-02-19T19:01:34.294Z,100629.75
2023-02-19T19:02:09.991Z,100625.81
2023-02-19T19:02:49.074Z,100630.13
2023-02-19T19:03:22.425Z,100635.03
2023-02-19T19:03:55.242Z,100635.75
2023-02-19T19:04:29.615Z,100641.59
2023-02-19T19:05:02.613Z,100640.13
2023-02-19T19:05:35.431Z,100634.94
2023-02-19T19:06:09.471Z,100640.13
2023-02-19T19:06:44.749Z,100634.94
2023-02-19T19:07:18.022Z,100637.81
2023-02-19T19:07:55.676Z,100632.78
2023-02-19T19:08:32.618Z,100635.63
2023-02-19T19:09:06.671Z,100639.13
2023-02-19T19:09:40.210Z,100642.94
2023-02-19T19:10:14.327Z,100639.44
2023-02-19T19:10:47.017Z,100637.00
2023-02-19T19:11:22.624Z,100637.84
2023-02-19T19:11:55.303Z,100624.19
2023-02-19T19:12:28.396Z,100633.75
2023-02-19T19:13:01.175Z,100641.44
2023-02-19T19:13:34.107Z,100640.56
2023-02-19T19:14:07.112Z,100639.94
2023-02-19T19:14:39.721Z,100638.50
2023-02-19T19:15:12.598Z,100641.25
2023-02-19T19:15:50.825Z,100641.44
2023-02-19T19:16:28.512Z,100648.63
2023-02-19T19:17:01.154Z,100645.47
2023-02-19T19:17:35.659Z,100651.47
2023-02-19T19:18:09.680Z,100654.13
2023-02-19T19:18:42.595Z,100652.44
2023-02-19T19:19:16.236Z,100662.13
2023-02-19T19:19:48.970Z,100659.50
2023-02-19T19:20:26.018Z,100666.44
2023-02-19T19:21:05.944Z,100664.66
2023-02-19T19:21:41.197Z,100662.97
2023-02-19T19:22:13.950Z,100666.56
2023-02-19T19:22:49.005Z,100669.31
2023-02-19T19:23:22.085Z,100667.72
2023-02-19T19:23:54.882Z,100675.63
2023-02-19T19:24:30.706Z,100677.44
2023-02-19T19:25:04.999Z,100673.34
2023-02-19T19:25:38.465Z,100669.84
2023-02-19T19:26:11.364Z,100662.97
2023-02-19T19:26:46.498Z,100666.09
2023-02-19T19:27:21.408Z,100667.38
2023-02-19T19:27:57.143Z,100678.13
2023-02-19T19:28:31.371Z,100674.75
2023-02-19T19:29:05.025Z,100671.25
2023-02-19T19:29:37.640Z,100678.91
2023-02-19T19:30:10.549Z,100678.19
2023-02-19T19:30:43.661Z,100686.31
2023-02-19T19:31:18.525Z,100684.88
2023-02-19T19:31:51.243Z,100682.25
2023-02-19T19:32:26.365Z,100675.50
2023-02-19T19:32:59.106Z,100681.81
2023-02-19T19:33:32.063Z,100687.09
2023-02-19T19:34:06.432Z,100683.00
2023-02-19T19:34:39.387Z,100675.31
2023-02-19T19:35:12.159Z,100681.19
2023-02-19T19:35:45.727Z,100677.50
2023-02-19T19:36:24.027Z,100677.59
2023-02-19T19:36:57.933Z,100681.31
2023-02-19T19:37:30.776Z,100684.03
2023-02-19T19:38:03.373Z,100692.06
2023-02-19T19:38:36.186Z,100686.97
2023-02-19T19:39:10.272Z,100686.97
2023-02-19T19:39:44.367Z,100682.13
2023-02-19T19:40:25.072Z,100692.72
2023-02-19T19:40:57.945Z,100697.59
2023-02-19T19:41:31.024Z,100687.28
2023-02-19T19:42:11.736Z,100692.31
2023-02-19T19:42:44.692Z,100683.81
2023-02-19T19:43:18.869Z,100691.94
2023-02-19T19:43:51.962Z,100685.19
2023-02-19T19:44:25.910Z,100684.56
2023-02-19T19:44:59.065Z,100684.44
2023-02-19T19:45:31.981Z,100684.34
2023-02-19T19:46:05.186Z,100686.34
2023-02-19T19:46:45.250Z,100692.69
2023-02-19T19:47:18.517Z,100687.19
2023-02-19T19:47:51.096Z,100690.78
2023-02-19T19:48:24.901Z,100692.69
2023-02-19T19:49:07.816Z,100678.56
2023-02-19T19:49:41.709Z,100683.59
2023-02-19T19:50:14.629Z,100683.59
2023-02-19T19:50:47.225Z,100695.00
2023-02-19T19:51:22.103Z,100691.63
2023-02-19T19:51:56.580Z,100690.06
2023-02-19T19:52:31.100Z,100699.41
2023-02-19T19:53:06.887Z,100692.47
2023-02-19T19:53:39.793Z,100705.34
2023-02-19T19:54:13.425Z,100705.94
2023-02-19T19:54:45.999Z,100699.00
2023-02-19T19:55:22.026Z,100704.66
2023-02-19T19:55:54.680Z,100702.88
2023-02-19T19:56:32.786Z,100708.25
2023-02-19T19:57:04.991Z,100703.59
2023-02-19T19:57:40.835Z,100705.16
2023-02-19T19:58:15.155Z,100705.28
2023-02-19T19:58:48.398Z,100708.97
2023-02-19T19:59:23.701Z,100707.81
2023-02-19T19:59:57.348Z,100708.44
2023-02-19T20:00:30.205Z,100714.75
2023-02-19T20:01:03.822Z,100715.28
2023-02-19T20:01:36.832Z,100706.53
2023-02-19T20:02:12.888Z,100711.94
2023-02-19T20:02:47.240Z,100719.00
2023-02-19T20:03:21.798Z,100712.78
2023-02-19T20:03:54.694Z,100716.44
2023-02-19T20:04:28.452Z,100719.72
2023-02-19T20:05:01.814Z,100710.13
2023-02-19T20:05:34.701Z,100710.97
2023-02-19T20:06:07.580Z,100716.03
2023-02-19T20:06:40.188Z,100721.91
2023-02-19T20:07:13.644Z,100718.31
2023-02-19T20:07:47.536Z,100720.72
2023-02-19T20:08:20.564Z,100719.56
2023-02-19T20:08:54.299Z,100713.75
2023-02-19T20:09:29.648Z,100719.00
2023-02-19T20:10:02.259Z,100729.94
2023-02-19T20:10:35.990Z,100733.19
2023-02-19T20:11:08.669Z,100727.72
2023-02-19T20:11:49.081Z,100729.78
2023-02-19T20:12:21.762Z,100732.19
2023-02-19T20:12:54.217Z,100733.78
2023-02-19T20:13:29.349Z,100732.63
2023-02-19T20:14:06.162Z,100731.66
2023-02-19T20:14:41.588Z,100741.56
2023-02-19T20:15:14.795Z,100739.41
2023-02-19T20:15:47.657Z,100745.22
2023-02-19T20:16:29.775Z,100748.69
2023-02-19T20:17:05.700Z,100752.78
2023-02-19T20:17:40.203Z,100753.50
2023-02-19T20:18:15.375Z,100751.69
2023-02-19T20:18:50.757Z,100764.78
2023-02-19T20:19:24.510Z,100760.00
2023-02-19T20:19:58.391Z,100768.88
2023-02-19T20:20:31.699Z,100762.41
2023-02-19T20:21:05.684Z,100766.63
2023-02-19T20:21:38.514Z,100770.31
2023-02-19T20:22:13.629Z,100765.78
2023-02-19T20:22:45.977Z,100769.16
2023-02-19T20:23:18.645Z,100766.50
2023-02-19T20:23:51.410Z,100775.28
2023-02-19T20:24:29.085Z,100778.53
2023-02-19T20:25:03.769Z,100778.53
2023-02-19T20:25:37.325Z,100767.97
2023-02-19T20:26:10.330Z,100781.06
2023-02-19T20:26:43.295Z,100774.94
2023-02-19T20:27:15.842Z,100774.19
2023-02-19T20:27:50.078Z,100761.25
2023-02-19T20:28:22.774Z,100765.78
2023-02-19T20:28:57.717Z,100769.34
2023-02-19T20:29:33.258Z,100761.91
2023-02-19T20:30:06.910Z,100763.22
2023-02-19T20:30:40.369Z,100770.78
2023-02-19T20:31:15.970Z,100770.78
2023-02-19T20:31:53.298Z,100771.03
2023-02-19T20:32:26.368Z,100766.22
2023-02-19T20:33:02.681Z,100777.59
2023-02-19T20:33:36.890Z,100777.91
2023-02-19T20:34:09.292Z,100779.00
2023-02-19T20:34:42.223Z,100767.94
2023-02-19T20:35:16.165Z,100772.25
2023-02-19T20:35:48.804Z,100777.41
2023-02-19T20:36:21.779Z,100776.69
2023-02-19T20:36:55.098Z,100769.75
2023-02-19T20:37:29.231Z,100766.50
2023-02-19T20:38:03.661Z,100761.44
2023-02-19T20:38:36.490Z,100762.47
2023-02-19T20:39:10.101Z,100763.25
2023-02-19T20:39:45.029Z,100762.69
2023-02-19T20:40:19.005Z,100765.13
2023-02-19T20:40:51.760Z,100762.69
2023-02-19T20:41:25.009Z,100762.28
2023-02-19T20:42:00.326Z,100760.59
2023-02-19T20:42:32.911Z,100758.09
2023-02-19T20:43:05.632Z,100766.41
2023-02-19T20:43:38.248Z,100756.75
2023-02-19T20:45:00.830Z,100762.56
2023-02-19T20:45:34.914Z,100765.53
2023-02-19T20:46:09.246Z,100767.31
2023-02-19T20:46:47.005Z,100771.88
2023-02-19T20:47:22.772Z,100764.91
2023-02-19T20:47:55.844Z,100768.50
2023-02-19T20:48:33.602Z,100763.53
2023-02-19T20:49:06.243Z,100770.50
2023-02-19T20:49:38.777Z,100767.97
2023-02-19T20:50:12.134Z,100773.97
2023-02-19T20:50:45.471Z,100765.34
2023-02-19T20:51:18.082Z,100766.19
2023-02-19T20:52:01.479Z,100767.13
2023-02-19T20:52:33.917Z,100772.94
2023-02-19T20:53:06.559Z,100777.38
2023-02-19T20:53:40.790Z,100779.34
2023-02-19T20:54:17.586Z,100769.75
2023-02-19T20:54:50.311Z,100778.75
2023-02-19T20:55:24.304Z,100772.63
2023-02-19T20:55:58.751Z,100780.75
2023-02-19T20:56:31.025Z,100779.19
2023-02-19T20:57:05.552Z,100770.53
2023-02-19T20:57:38.946Z,100779.41
2023-02-19T20:58:12.824Z,100775.09
2023-02-19T20:58:45.193Z,100784.03
2023-02-19T20:59:19.343Z,100787.72
2023-02-19T20:59:51.516Z,100787.53
2023-02-19T21:00:25.283Z,100779.81
2023-02-19T21:00:57.763Z,100794.69
2023-02-19T21:01:30.498Z,100792.81
2023-02-19T21:02:04.994Z,100789.41
2023-02-19T21:02:38.078Z,100789.41
2023-02-19T21:03:12.166Z,100784.25
2023-02-19T21:03:44.906Z,100792.81
2023-02-19T21:04:20.132Z,100794.56
2023-02-19T21:04:52.661Z,100785.81
2023-02-19T21:05:25.326Z,100783.31
2023-02-19T21:05:57.492Z,100775.94
2023-02-19T21:06:29.901Z,100783.09
2023-02-19T21:07:02.422Z,100778.03
2023-02-19T21:07:36.073Z,100777.41
2023-02-19T21:08:08.645Z,100777.00
2023-02-19T21:08:41.192Z,100783.94
2023-02-19T21:09:13.904Z,100787.63
2023-02-19T21:09:46.414Z,100775.72
2023-02-19T21:10:19.125Z,100793.13
2023-02-19T21:10:51.718Z,100792.28
2023-02-19T21:11:24.410Z,100782.16
2023-02-19T21:11:57.183Z,100793.44
2023-02-19T21:12:29.301Z,100789.22
2023-02-19T21:13:01.894Z,100780.69
2023-02-19T21:13:35.670Z,100787.22
2023-02-19T21:14:08.384Z,100784.81
2023-02-19T21:14:42.017Z,100798.50
2023-02-19T21:15:14.922Z,100790.81
2023-02-19T21:15:46.828Z,100792.50
2023-02-19T21:16:19.451Z,100789.34
2023-02-19T21:16:52.167Z,100787.22
2023-02-19T21:17:24.939Z,100793.44
2023-02-19T21:17:57.743Z,100795.13
2023-02-19T21:18:30.183Z,100801.88
2023-02-19T21:19:02.761Z,100797.03
2023-02-19T21:19:35.365Z,100789.22
2023-02-19T21:20:08.795Z,100800.63
2023-02-19T21:20:42.328Z,100785.25
2023-02-19T21:21:19.057Z,100794.63
2023-02-19T21:21:51.282Z,100794.72
2023-02-19T21:22:23.481Z,100794.72
2023-02-19T21:22:55.771Z,100788.16
2023-02-19T21:23:29.394Z,100786.72
2023-02-19T21:24:03.798Z,100789.44
2023-02-19T21:24:36.169Z,100785.56
2023-02-19T21:25:08.516Z,100794.94
2023-02-19T21:25:40.459Z,100794.22
2023-02-19T21:26:12.843Z,100793.66
2023-02-19T21:26:47.088Z,100802.44
2023-02-19T21:27:20.316Z,100785.25
2023-02-19T21:27:52.244Z,100790.28
2023-02-19T21:28:25.015Z,100796.28
2023-02-19T21:28:57.423Z,100784.19
2023-02-19T21:29:29.524Z,100783.03
2023-02-19T21:30:02.268Z,100795.78
2023-02-19T21:30:34.633Z,100791.97
2023-02-19T21:31:07.137Z,100786.81
2023-02-19T21:31:50.727Z,100797.06
2023-02-19T21:32:22.854Z,100793.25
2023-02-19T21:32:54.795Z,100791.34
2023-02-19T21:33:27.953Z,100789.44
2023-02-19T21:34:00.330Z,100785.88
2023-02-19T21:34:32.481Z,100791.66
2023-02-19T21:35:04.914Z,100785.44
2023-02-19T21:35:37.145Z,100773.44
2023-02-19T21:36:09.518Z,100790.50
2023-02-19T21:36:41.461Z,100790.50
2023-02-19T21:37:13.608Z,100783.34
2023-02-19T21:37:45.728Z,100786.81
2023-02-19T21:38:17.815Z,100778.47
2023-02-19T21:38:50.230Z,100792.81
2023-02-19T21:39:24.655Z,100793.66
2023-02-19T21:39:56.692Z,100777.84
2023-02-19T21:40:30.354Z,100773.84
2023-02-19T21:41:07.001Z,100783.84
2023-02-19T21:41:39.628Z,100786.50
2023-02-19T21:42:11.408Z,100777.84
2023-02-19T21:42:43.332Z,100775.00
2023-02-19T21:43:15.374Z,100772.34
2023-02-19T21:43:47.394Z,100783.97
2023-02-19T21:44:21.209Z,100777.84
2023-02-19T21:44:52.983Z,100784.81
2023-02-19T21:45:24.994Z,100786.50
2023-02-19T21:45:57.519Z,100781.22
2023-02-19T21:46:29.686Z,100781.53
2023-02-19T21:47:01.979Z,100779.75
2023-02-19T21:47:35.905Z,100776.16
2023-02-19T21:48:08.530Z,100780.59
2023-02-19T21:48:40.211Z,100772.06
2023-02-19T21:49:12.889Z,100770.91
2023-02-19T21:49:45.098Z,100770.06
2023-02-19T21:50:17.083Z,100780.47
2023-02-19T21:50:49.242Z,100774.47
2023-02-19T21:51:27.849Z,100771.84
2023-02-19T21:52:00.230Z,100772.56
2023-02-19T21:52:32.978Z,100775.09
2023-02-19T21:53:05.703Z,100771.41
2023-02-19T21:53:37.513Z,100786.38
2023-02-19T21:54:18.326Z,100773.31
2023-02-19T21:54:50.120Z,100777.63
2023-02-19T21:55:21.940Z,100783.63
2023-02-19T21:55:58.782Z,100781.22
2023-02-19T21:56:44.395Z,100781.94
2023-02-19T21:57:16.200Z,100773.81
2023-02-19T21:57:47.924Z,100786.16
2023-02-19T21:58:19.762Z,100772.47
2023-02-19T21:58:51.815Z,100783.63
2023-02-19T21:59:23.721Z,100771.41
2023-02-19T21:59:55.838Z,100799.34
2023-02-19T22:00:27.708Z,100794.06
2023-02-19T22:00:59.621Z,100792.28
2023-02-19T22:01:38.683Z,100791.53
2023-02-19T22:02:10.672Z,100791.31
2023-02-19T22:02:43.412Z,100791.31
2023-02-19T22:03:16.514Z,100782.47
2023-02-19T22:03:48.713Z,100786.03
2023-02-19T22:04:21.952Z,100791.31
2023-02-19T22:04:55.657Z,100792.16
2023-02-19T22:05:27.496Z,100806.41
2023-02-19T22:06:02.448Z,100803.66
2023-02-19T22:06:35.054Z,100796.69
2023-02-19T22:07:06.957Z,100797.44
2023-02-19T22:07:39.014Z,100796.81
2023-02-19T22:08:10.976Z,100800.19
2023-02-19T22:08:44.449Z,100802.81
2023-02-19T22:09:16.509Z,100793.56
2023-02-19T22:09:49.688Z,100797.88
2023-02-19T22:10:21.647Z,100804.81
2023-02-19T22:10:53.318Z,100800.72
2023-02-19T22:11:25.216Z,100808.41
2023-02-19T22:11:56.879Z,100804.22
2023-02-19T22:12:28.617Z,100807.91
2023-02-19T22:13:00.359Z,100809.91
2023-02-19T22:13:32.060Z,100821.06
2023-02-19T22:14:04.114Z,100813.38
2023-02-19T22:14:35.817Z,100812.53
2023-02-19T22:15:07.910Z,100815.25
2023-02-19T22:15:39.607Z,100819.69
2023-02-19T22:16:11.599Z,100823.38
2023-02-19T22:16:43.562Z,100833.72
2023-02-19T22:17:15.449Z,100834.56
2023-02-19T22:17:47.233Z,100837.13
2023-02-19T22:18:18.901Z,100838.78
2023-02-19T22:18:53.497Z,100844.25
2023-02-19T22:19:25.182Z,100845.94
2023-02-19T22:19:56.866Z,100848.50
2023-02-19T22:20:28.535Z,100839.09
2023-02-19T22:21:00.372Z,100834.03
2023-02-19T22:21:34.981Z,100845.09
2023-02-19T22:22:08.077Z,100853.84
2023-02-19T22:22:40.866Z,100848.91
2023-02-19T22:23:12.701Z,100850.38
2023-02-19T22:23:46.233Z,100853.94
2023-02-19T22:24:20.862Z,100853.00
2023-02-19T22:24:53.085Z,100853.09
2023-02-19T22:25:24.761Z,100853.94
2023-02-19T22:25:56.501Z,100850.47
2023-02-19T22:26:32.364Z,100854.91
2023-02-19T22:27:04.348Z,100860.91
2023-02-19T22:27:36.116Z,100849.75
2023-02-19T22:28:07.925Z,100858.59
2023-02-19T22:28:39.651Z,100866.41
2023-02-19T22:29:14.434Z,100866.41
2023-02-19T22:29:46.116Z,100857.00
2023-02-19T22:30:18.135Z,100864.19
2023-02-19T22:30:49.876Z,100863.97
2023-02-19T22:31:23.946Z,100859.88
2023-02-19T22:31:56.097Z,100866.59
2023-02-19T22:32:27.966Z,100863.25
2023-02-19T22:32:59.953Z,100871.03
2023-02-19T22:33:31.653Z,100876.31
2023-02-19T22:34:04.032Z,100873.78
2023-02-19T22:34:40.328Z,100867.66
2023-02-19T22:35:12.939Z,100866.72
2023-02-19T22:35:45.460Z,100873.03
2023-02-19T22:36:24.195Z,100871.25